Time;durP1;ratioP1;P1;durP2;ratioP2;P2;SDS_P1;SDS_P2;PMS_P1;PMS_P2;Temp;Humidity;BMP_temperature;BMP_pressure;BME280_temperature;BME280_humidity;BME280_pressure;Samples;Min_cycle;Max_cycle;Signal;HPM_P1;HPM_P2
2023/11/16 00:00:17;;;;;;;;;;;;;;;6.44;100.00;99942.84;6158939;23;19923;-93
2023/11/16 00:02:42;;;;;;;;;;;;;;;6.46;100.00;99953.34;6161095;23;19912;-91
2023/11/16 00:05:12;;;;;;;;;;;;;;;6.46;100.00;99953.34;6185397;23;20383;-92
2023/11/16 00:07:38;;;;;;;;;;;;;;;6.45;100.00;99947.22;6190871;23;20004;-92
2023/11/16 00:10:07;;;;;;;;;;;;;;;6.47;100.00;99947.19;6187614;23;19912;-94
2023/11/16 00:12:33;;;;;;;;;;;;;;;6.47;100.00;99939.28;6188337;23;19915;-91
2023/11/16 00:14:59;;;;;;;;;;;;;;;6.45;100.00;99933.19;6162713;23;19916;-92
2023/11/16 00:17:24;;;;;;;;;;;;;;;6.41;100.00;99921.84;6191161;23;19908;-91
2023/11/16 00:19:49;;;;;;;;;;;;;;;6.40;100.00;99927.16;6164768;23;20427;-91
2023/11/16 00:22:14;;;;;;;;;;;;;;;6.44;100.00;99926.19;6190411;23;19913;-90
2023/11/16 00:24:39;;;;;;;;;;;;;;;6.49;100.00;99926.94;6159519;23;19916;-91
2023/11/16 08:06:04;;;;;;;;;;;;;;;5.97;100.00;99518.69;6246670;23;19950;-90
2023/11/16 08:08:31;;;;;;;;;;;;;;;5.96;100.00;99507.28;6245899;23;19911;-91
2023/11/16 08:10:58;;;;;;;;;;;;;;;5.97;100.00;99503.78;6248544;23;19990;-90
2023/11/16 08:13:24;;;;;;;;;;;;;;;5.99;100.00;99501.09;6217090;23;20065;-90
2023/11/16 08:15:52;;;;;;;;;;;;;;;5.92;100.00;99497.75;6218952;23;20319;-90
2023/11/16 08:18:22;;;;;;;;;;;;;;;5.93;100.00;99491.56;6248602;23;19915;-90
2023/11/16 08:20:48;;;;;;;;;;;;;;;5.93;100.00;99481.06;6247945;23;19990;-89
2023/11/16 08:23:14;;;;;;;;;;;;;;;5.97;100.00;99466.94;6246995;23;19911;-89
2023/11/16 08:25:41;;;;;;;;;;;;;;;6.02;100.00;99471.22;6248311;23;19915;-89
2023/11/16 08:28:10;;;;;;;;;;;;;;;6.02;100.00;99463.34;6248206;23;19915;-89
2023/11/16 08:30:35;;;;;;;;;;;;;;;6.00;100.00;99466.00;6245551;23;20303;-89
2023/11/16 08:33:01;;;;;;;;;;;;;;;5.99;100.00;99459.88;6246581;23;19943;-88
2023/11/16 08:35:26;;;;;;;;;;;;;;;5.99;100.00;99457.25;6246428;23;20251;-88
2023/11/16 08:37:54;;;;;;;;;;;;;;;5.99;100.00;99451.97;6245340;23;19942;-89
2023/11/16 09:01:38;;;;;;;;;;;;;;;5.97;100.00;99395.94;6245675;23;20415;-90
2023/11/16 09:04:04;;;;;;;;;;;;;;;5.94;100.00;99393.38;6247087;23;19920;-91
2023/11/16 09:06:30;;;;;;;;;;;;;;;5.93;100.00;99390.78;6247766;23;19947;-91
2023/11/16 09:08:57;;;;;;;;;;;;;;;5.97;100.00;99385.44;6246164;23;20311;-94
2023/11/16 09:11:27;;;;;;;;;;;;;;;5.93;100.00;99377.63;6246014;23;20349;-90
2023/11/16 09:13:56;;;;;;;;;;;;;;;5.97;100.00;99366.16;6250282;23;19916;-95
2023/11/16 09:16:22;;;;;;;;;;;;;;;5.95;100.00;99353.03;6253314;23;19912;-92
2023/11/16 09:18:48;;;;;;;;;;;;;;;5.95;100.00;99339.88;6221044;23;19965;-91
2023/11/16 09:21:14;;;;;;;;;;;;;;;5.92;100.00;99332.09;6250784;23;20446;-91
2023/11/16 09:23:39;;;;;;;;;;;;;;;5.93;100.00;99317.16;6218782;23;19918;-89
2023/11/16 09:26:14;;;;;;;;;;;;;;;5.90;100.00;99312.84;6246585;23;19943;-85
2023/11/16 09:28:42;;;;;;;;;;;;;;;5.91;100.00;99296.16;6243028;23;19943;-91
2023/11/16 09:31:10;;;;;;;;;;;;;;;5.91;100.00;99287.44;6218580;23;20282;-91
2023/11/16 09:36:43;;;;;;;;;;;;;;;5.89;100.00;99283.97;6236762;23;19915;-89
2023/11/16 09:39:08;;;;;;;;;;;;;;;5.87;100.00;99280.53;6218190;23;20323;-89
2023/11/16 09:41:36;;;;;;;;;;;;;;;5.92;100.00;99274.22;6245404;23;19998;-92
2023/11/16 09:44:06;;;;;;;;;;;;;;;5.89;100.00;99260.28;6243951;23;20358;-90
2023/11/16 09:46:39;;;;;;;;;;;;;;;5.92;100.00;99242.69;6246400;23;19987;-93
2023/11/16 09:49:05;;;;;;;;;;;;;;;5.91;100.00;99240.94;6245241;23;20224;-91
2023/11/16 09:51:31;;;;;;;;;;;;;;;5.95;100.00;99239.06;6245761;23;19916;-90
2023/11/16 09:54:01;;;;;;;;;;;;;;;5.90;100.00;99231.31;6217374;23;20377;-90
2023/11/16 09:56:30;;;;;;;;;;;;;;;5.88;100.00;99225.25;6245851;23;19926;-92
2023/11/16 09:59:06;;;;;;;;;;;;;;;5.89;100.00;99212.97;6244104;22;19912;-93
2023/11/16 10:01:37;;;;;;;;;;;;;;;5.91;100.00;99208.53;6248999;22;20239;-91
2023/11/16 10:04:03;;;;;;;;;;;;;;;5.87;100.00;99212.16;6249549;22;19922;-90
2023/11/16 10:06:28;;;;;;;;;;;;;;;5.92;100.00;99205.84;6277739;22;19915;-89
2023/11/16 10:08:54;;;;;;;;;;;;;;;5.89;100.00;99195.44;6252456;22;20010;-90
2023/11/16 10:11:22;;;;;;;;;;;;;;;5.91;100.00;99196.25;6250893;22;19911;-91
2023/11/16 10:13:53;;;;;;;;;;;;;;;5.91;100.00;99196.25;6250131;22;19921;-90
2023/11/16 10:16:24;;;;;;;;;;;;;;;5.90;100.00;99189.25;6278409;22;19965;-89
2023/11/16 10:18:51;;;;;;;;;;;;;;;5.89;100.00;99184.91;6278502;22;19911;-90
2023/11/16 10:21:19;;;;;;;;;;;;;;;5.87;100.00;99178.88;6277727;22;19919;-90
2023/11/16 10:23:45;;;;;;;;;;;;;;;5.90;100.00;99170.00;6252310;22;20306;-89
2023/11/16 10:26:11;;;;;;;;;;;;;;;5.86;100.00;99171.88;6278544;22;19956;-89
2023/11/16 10:28:37;;;;;;;;;;;;;;;5.86;100.00;99171.88;6249229;22;19915;-90
2023/11/16 10:31:03;;;;;;;;;;;;;;;5.84;100.00;99160.56;6251652;22;19918;-90
2023/11/16 10:33:31;;;;;;;;;;;;;;;5.85;100.00;99169.28;6251262;22;19915;-89
2023/11/16 10:35:57;;;;;;;;;;;;;;;5.83;100.00;99164.94;6278090;22;19919;-90
2023/11/16 10:38:23;;;;;;;;;;;;;;;5.81;100.00;99172.03;6278092;22;19994;-90
2023/11/16 10:40:51;;;;;;;;;;;;;;;5.85;100.00;99172.78;6279571;22;19915;-89
2023/11/16 10:43:18;;;;;;;;;;;;;;;5.82;100.00;99178.13;6276190;22;19919;-89
2023/11/16 10:45:44;;;;;;;;;;;;;;;5.84;100.00;99178.97;6277597;22;19912;-89
2023/11/16 10:48:12;;;;;;;;;;;;;;;5.89;100.00;99179.66;6277680;22;19922;-89
2023/11/16 10:50:42;;;;;;;;;;;;;;;5.90;100.00;99185.78;6250411;22;19915;-89
2023/11/16 10:53:12;;;;;;;;;;;;;;;5.85;100.00;99190.31;6250569;22;19961;-89
2023/11/16 10:55:37;;;;;;;;;;;;;;;5.82;100.00;99188.66;6277480;22;19915;-88
2023/11/16 10:58:06;;;;;;;;;;;;;;;5.90;100.00;99178.72;6249139;22;20318;-89
2023/11/16 11:00:34;;;;;;;;;;;;;;;5.89;100.00;99171.78;6248752;22;19994;-89
2023/11/16 11:03:01;;;;;;;;;;;;;;;5.88;100.00;99172.66;6278225;22;19938;-90
2023/11/16 11:05:29;;;;;;;;;;;;;;;5.92;100.00;99170.78;6250514;22;20242;-91
2023/11/16 11:07:56;;;;;;;;;;;;;;;5.90;100.00;99168.22;6276993;22;20378;-89
2023/11/16 11:10:27;;;;;;;;;;;;;;;5.91;100.00;99150.69;6277183;22;19911;-90
2023/11/16 11:12:53;;;;;;;;;;;;;;;5.87;100.00;99141.16;6249276;22;19922;-89
2023/11/16 11:15:25;;;;;;;;;;;;;;;5.92;100.00;99128.72;6251169;22;20230;-89
2023/11/16 11:17:59;;;;;;;;;;;;;;;5.96;100.00;99118.06;6277287;22;19918;-92
2023/11/16 11:20:39;;;;;;;;;;;;;;;5.92;100.00;99128.72;6250706;22;20230;-87
2023/11/16 11:23:06;;;;;;;;;;;;;;;5.89;100.00;99131.44;6278158;22;19918;-91
2023/11/16 11:25:32;;;;;;;;;;;;;;;5.88;100.00;99129.75;6251501;22;19915;-91
2023/11/16 11:27:57;;;;;;;;;;;;;;;5.87;100.00;99133.28;6212407;23;20004;-89
2023/11/16 11:30:23;;;;;;;;;;;;;;;5.87;100.00;99134.16;6188059;23;20203;-92
2023/11/16 11:32:52;;;;;;;;;;;;;;;5.86;100.00;99132.44;6188302;23;19919;-91
2023/11/16 11:35:24;;;;;;;;;;;;;;;5.88;100.00;99122.72;6188207;23;19919;-87
2023/11/16 11:37:56;;;;;;;;;;;;;;;5.89;100.00;99127.06;6214710;23;19990;-93
2023/11/16 11:43:26;;;;;;;;;;;;;;;5.87;100.00;99123.66;6153153;23;19919;-89
2023/11/16 11:45:52;;;;;;;;;;;;;;;5.83;100.00;99095.72;6213485;23;19916;-89
2023/11/16 11:48:33;;;;;;;;;;;;;;;5.83;100.00;99093.09;6212977;23;19951;-94
2023/11/16 11:51:19;;;;;;;;;;;;;;;5.80;100.00;99082.69;6214167;23;19987;-92
2023/11/16 11:57:08;;;;;;;;;;;;;;;5.81;100.00;99055.50;6154107;23;19995;-93
2023/11/16 12:02:40;;;;;;;;;;;;;;;5.79;100.00;99029.25;6276054;22;19942;-92
2023/11/16 12:05:18;;;;;;;;;;;;;;;5.85;100.00;99007.13;6251153;22;19919;-93
2023/11/16 12:07:43;;;;;;;;;;;;;;;5.85;100.00;98993.97;6276271;22;19911;-91
2023/11/16 12:10:08;;;;;;;;;;;;;;;5.88;100.00;98983.34;6249120;22;20384;-87
2023/11/16 12:12:39;;;;;;;;;;;;;;;5.85;100.00;98969.47;6249931;22;19918;-92
2023/11/16 12:15:06;;;;;;;;;;;;;;;5.90;100.00;98965.75;6249451;22;20447;-96
2023/11/16 12:17:34;;;;;;;;;;;;;;;5.91;100.00;98949.06;6252897;22;19915;-93
2023/11/16 12:20:00;;;;;;;;;;;;;;;5.93;100.00;98944.59;6277864;22;19938;-90
2023/11/16 12:23:04;;;;;;;;;;;;;;;;;;;;;
2023/11/16 12:25:42;;;;;;;;;;;;;;;5.86;100.00;98927.34;6277037;22;19978;-94
2023/11/16 12:34:34;;;;;;;;;;;;;;;5.81;100.00;98898.59;6220522;22;19942;-92
2023/11/16 12:37:37;;;;;;;;;;;;;;;5.83;100.00;98888.03;6250850;22;19918;-96
2023/11/16 12:40:09;;;;;;;;;;;;;;;5.88;100.00;98893.13;6243295;22;19922;-89
2023/11/16 12:42:34;;;;;;;;;;;;;;;5.84;100.00;98887.13;6250730;22;19958;-89
2023/11/16 12:45:23;;;;;;;;;;;;;;;;;;;;;
2023/11/16 12:47:58;;;;;;;;;;;;;;;5.90;100.00;98865.81;6277503;22;19998;-92
2023/11/16 12:50:28;;;;;;;;;;;;;;;5.89;100.00;98860.63;6251532;22;19919;-91
2023/11/16 12:52:56;;;;;;;;;;;;;;;5.91;100.00;98845.66;6281595;22;19911;-93
2023/11/16 12:55:22;;;;;;;;;;;;;;;5.90;100.00;98843.94;6252329;22;20002;-93
2023/11/16 13:03:10;;;;;;;;;;;;;;;5.93;100.00;98825.41;6278635;22;19923;-94
2023/11/16 13:06:13;;;;;;;;;;;;;;;5.88;100.00;98820.34;6255123;22;19965;-95
2023/11/16 13:08:38;;;;;;;;;;;;;;;5.86;100.00;98806.41;6251617;22;19999;-92
2023/11/16 13:11:29;;;;;;;;;;;;;;;5.84;100.00;98800.38;6250512;22;19911;-94
2023/11/16 13:13:55;;;;;;;;;;;;;;;5.84;100.00;98787.22;6269830;22;19907;-90
2023/11/16 13:16:29;;;;;;;;;;;;;;;5.89;100.00;98792.25;6278035;22;20377;-95
2023/11/16 13:18:58;;;;;;;;;;;;;;;5.85;100.00;98782.81;6277382;22;20341;-93
2023/11/16 13:21:24;;;;;;;;;;;;;;;5.82;100.00;98792.53;6250543;22;20038;-88
2023/11/16 13:23:49;;;;;;;;;;;;;;;5.83;100.00;98790.75;6276166;22;19911;-90
2023/11/16 13:26:17;;;;;;;;;;;;;;;5.87;100.00;98781.84;6276014;22;19982;-91
2023/11/16 13:28:44;;;;;;;;;;;;;;;5.85;100.00;98775.75;6274166;22;20323;-87
2023/11/16 13:31:10;;;;;;;;;;;;;;;5.85;100.00;98778.41;6274317;22;19923;-88
2023/11/16 13:33:35;;;;;;;;;;;;;;;5.84;100.00;98774.06;6278602;22;19911;-93
2023/11/16 13:36:00;;;;;;;;;;;;;;;5.85;100.00;98770.50;6252054;22;19915;-89
2023/11/16 13:38:27;;;;;;;;;;;;;;;5.82;100.00;98763.63;6275965;22;19938;-88
2023/11/16 13:40:54;;;;;;;;;;;;;;;5.81;100.00;98764.53;6250022;22;20333;-93
2023/11/16 13:43:19;;;;;;;;;;;;;;;5.82;100.00;98760.09;6249051;22;19922;-90
2023/11/16 13:45:45;;;;;;;;;;;;;;;5.87;100.00;98757.31;6278649;22;19907;-91
2023/11/16 13:48:10;;;;;;;;;;;;;;;5.85;100.00;98751.25;6273849;22;20259;-86
2023/11/16 13:50:36;;;;;;;;;;;;;;;5.79;100.00;98758.47;6277992;22;20243;-89
2023/11/16 13:53:02;;;;;;;;;;;;;;;5.82;100.00;98747.84;6250825;22;19986;-89
2023/11/16 13:55:27;;;;;;;;;;;;;;;5.85;100.00;98749.47;6278060;22;19918;-93
2023/11/16 13:57:53;;;;;;;;;;;;;;;5.87;100.00;98742.41;6250272;22;20227;-92
2023/11/16 14:00:23;;;;;;;;;;;;;;;5.80;100.00;98741.75;6278142;22;19916;-92
2023/11/16 14:02:48;;;;;;;;;;;;;;;5.86;100.00;98738.06;6278217;22;19919;-91
2023/11/16 14:05:13;;;;;;;;;;;;;;;5.81;100.00;98737.38;6276156;22;20287;-90
2023/11/16 14:07:39;;;;;;;;;;;;;;;5.85;100.00;98724.97;6277664;22;19918;-90
2023/11/16 14:10:07;;;;;;;;;;;;;;;5.85;100.00;98736.31;6277742;22;19943;-90
2023/11/16 14:12:32;;;;;;;;;;;;;;;5.75;100.00;98730.59;6277355;22;19922;-85
2023/11/16 14:14:58;;;;;;;;;;;;;;;5.80;100.00;98736.50;6275939;22;19911;-89
2023/11/16 14:17:24;;;;;;;;;;;;;;;5.77;100.00;98733.16;6251157;22;19922;-95
2023/11/16 14:19:49;;;;;;;;;;;;;;;5.77;100.00;98726.13;6280916;22;19934;-95
2023/11/16 14:22:18;;;;;;;;;;;;;;;5.77;100.00;98720.84;6277833;22;19921;-85
2023/11/16 14:24:46;;;;;;;;;;;;;;;5.78;100.00;98714.69;6254368;22;20247;-93
2023/11/16 14:27:12;;;;;;;;;;;;;;;5.82;100.00;98716.28;6284208;22;19915;-91
2023/11/16 14:29:37;;;;;;;;;;;;;;;5.83;100.00;98712.72;6275908;22;19918;-85
2023/11/16 14:32:03;;;;;;;;;;;;;;;5.81;100.00;98714.56;6284467;22;19911;-94
2023/11/16 14:34:29;;;;;;;;;;;;;;;5.83;100.00;98701.38;6252265;22;19911;-95
2023/11/16 14:36:54;;;;;;;;;;;;;;;5.80;100.00;98678.69;6287807;22;19915;-95
2023/11/16 14:39:21;;;;;;;;;;;;;;;5.80;100.00;98680.47;6283816;22;19942;-95
2023/11/16 14:41:47;;;;;;;;;;;;;;;5.85;100.00;98678.50;6261659;22;19919;-88
2023/11/16 14:44:14;;;;;;;;;;;;;;;5.86;100.00;98667.06;6277677;22;19934;-91
2023/11/16 14:46:39;;;;;;;;;;;;;;;5.79;100.00;98665.59;6251969;22;20012;-94
2023/11/16 14:49:05;;;;;;;;;;;;;;;5.79;100.00;98661.22;6283821;22;20324;-88
2023/11/16 14:51:31;;;;;;;;;;;;;;;5.81;100.00;98663.78;6281615;22;19915;-91
2023/11/16 14:54:03;;;;;;;;;;;;;;;5.75;100.00;98656.97;6278153;22;19950;-91
2023/11/16 14:56:28;;;;;;;;;;;;;;;5.75;100.00;98654.34;6249919;22;20246;-94
2023/11/16 14:58:53;;;;;;;;;;;;;;;5.73;100.00;98652.72;6248789;22;20388;-92
2023/11/16 15:01:19;;;;;;;;;;;;;;;5.71;100.00;98652.78;6275221;22;19919;-91
2023/11/16 15:03:44;;;;;;;;;;;;;;;5.70;100.00;98642.34;6277339;22;19994;-89
2023/11/16 15:06:10;;;;;;;;;;;;;;;5.73;100.00;98644.84;6277582;22;20334;-93
2023/11/16 15:08:35;;;;;;;;;;;;;;;5.75;100.00;98638.59;6283530;22;19931;-92
2023/11/16 15:11:00;;;;;;;;;;;;;;;5.77;100.00;98633.25;6277475;22;19942;-91
2023/11/16 15:13:25;;;;;;;;;;;;;;;5.69;100.00;98624.84;6276143;22;19991;-90
2023/11/16 15:15:53;;;;;;;;;;;;;;;5.73;100.00;98618.56;6277634;22;19935;-89
2023/11/16 15:18:18;;;;;;;;;;;;;;;5.74;100.00;98620.25;6284248;22;19911;-88
2023/11/16 15:20:45;;;;;;;;;;;;;;;5.76;100.00;98616.66;6287295;22;19917;-94
2023/11/16 15:23:10;;;;;;;;;;;;;;;5.71;100.00;98615.13;6298874;22;19935;-89
2023/11/16 15:25:41;;;;;;;;;;;;;;;5.71;100.00;98620.38;6292905;22;19937;-95
2023/11/16 15:28:07;;;;;;;;;;;;;;;5.70;100.00;98619.53;6279143;22;19915;-89
2023/11/16 15:30:33;;;;;;;;;;;;;;;5.71;100.00;98630.88;6291015;22;19934;-92
2023/11/16 15:33:01;;;;;;;;;;;;;;;5.76;100.00;98621.03;6290776;22;20247;-93
2023/11/16 15:35:57;;;;;;;;;;;;;;;5.77;100.00;98631.47;6257766;22;19911;-90
2023/11/16 15:38:22;;;;;;;;;;;;;;;5.80;100.00;98627.88;6257599;22;19946;-93
2023/11/16 15:40:48;;;;;;;;;;;;;;;5.78;100.00;98619.22;6295093;22;19915;-92
2023/11/16 15:43:15;;;;;;;;;;;;;;;5.76;100.00;98615.78;6292912;22;20258;-89
2023/11/16 15:45:42;;;;;;;;;;;;;;;5.73;100.00;98613.31;6280141;22;19953;-93
2023/11/16 15:48:08;;;;;;;;;;;;;;;5.79;100.00;98613.03;6254803;22;19916;-93
2023/11/16 15:50:33;;;;;;;;;;;;;;;5.80;100.00;98612.09;6255049;22;19938;-92
2023/11/16 15:53:02;;;;;;;;;;;;;;;5.74;100.00;98610.59;6255586;22;19915;-94
2023/11/16 15:55:28;;;;;;;;;;;;;;;5.72;100.00;98604.53;6283184;22;19918;-92
2023/11/16 15:57:54;;;;;;;;;;;;;;;5.77;100.00;98601.72;6275968;22;19911;-90
2023/11/16 16:00:19;;;;;;;;;;;;;;;5.77;100.00;98605.19;6280832;22;20484;-92
2023/11/16 16:02:47;;;;;;;;;;;;;;;5.77;100.00;98605.19;6286702;22;19915;-88
2023/11/16 16:05:12;;;;;;;;;;;;;;;5.77;100.00;98605.19;6283702;22;19996;-91
2023/11/16 16:07:41;;;;;;;;;;;;;;;5.81;100.00;98601.53;6281460;22;19911;-94
2023/11/16 16:10:06;;;;;;;;;;;;;;;5.78;100.00;98598.19;6285937;22;20305;-89
2023/11/16 16:12:32;;;;;;;;;;;;;;;5.79;100.00;98599.88;6278168;22;19957;-93
2023/11/16 16:15:00;;;;;;;;;;;;;;;5.79;100.00;98594.63;6279794;22;19911;-93
2023/11/16 16:17:27;;;;;;;;;;;;;;;5.75;100.00;98578.13;6284767;22;19918;-95
2023/11/16 16:19:53;;;;;;;;;;;;;;;5.72;100.00;98582.66;6278162;22;19911;-89
2023/11/16 16:22:18;;;;;;;;;;;;;;;5.74;100.00;98579.03;6277698;22;19911;-82
2023/11/16 16:24:43;;;;;;;;;;;;;;;5.77;100.00;98583.31;6281009;22;20246;-94
2023/11/16 16:27:09;;;;;;;;;;;;;;;5.80;100.00;98581.41;6251417;22;19961;-87
2023/11/16 16:29:37;;;;;;;;;;;;;;;5.74;100.00;98579.03;6273688;22;19961;-88
2023/11/16 16:32:13;;;;;;;;;;;;;;;5.69;100.00;98567.88;6257936;22;19922;-92
2023/11/16 16:34:49;;;;;;;;;;;;;;;5.74;100.00;98572.94;6278438;22;19957;-88
2023/11/16 16:37:23;;;;;;;;;;;;;;;5.80;100.00;98572.69;6287537;22;19967;-90
2023/11/16 16:39:48;;;;;;;;;;;;;;;5.80;100.00;98576.16;6258610;22;19957;-94
2023/11/16 16:42:14;;;;;;;;;;;;;;;5.75;100.00;98577.28;6253755;22;19959;-96
2023/11/16 16:44:39;;;;;;;;;;;;;;;5.73;100.00;98573.88;6257867;22;20295;-95
2023/11/16 16:47:06;;;;;;;;;;;;;;;5.71;100.00;98579.19;6289595;22;19926;-92
2023/11/16 16:55:29;;;;;;;;;;;;;;;5.71;100.00;98579.19;6290241;22;19919;-94
2023/11/16 16:58:02;;;;;;;;;;;;;;;5.68;100.00;98575.81;6265752;22;19919;-93
2023/11/16 17:00:57;;;;;;;;;;;;;;;5.70;100.00;98574.00;6265888;22;19911;-91
2023/11/16 17:03:30;;;;;;;;;;;;;;;5.74;100.00;98572.94;6267975;22;19915;-94
2023/11/16 17:06:08;;;;;;;;;;;;;;;;;;;;;
2023/11/16 17:08:41;;;;;;;;;;;;;;;5.69;100.00;98577.53;6295120;22;19912;-93
2023/11/16 17:11:07;;;;;;;;;;;;;;;5.67;100.00;98574.97;6275400;22;19919;-89
2023/11/16 17:13:33;;;;;;;;;;;;;;;5.68;100.00;98571.44;6281222;22;19916;-93
2023/11/16 17:16:06;;;;;;;;;;;;;;;5.74;100.00;98583.44;6263360;22;20299;-92
2023/11/16 17:18:34;;;;;;;;;;;;;;;5.68;100.00;98581.94;6286444;22;20375;-93
2023/11/16 17:21:05;;;;;;;;;;;;;;;5.69;100.00;98582.78;6287090;22;19922;-90
2023/11/16 17:23:32;;;;;;;;;;;;;;;5.68;100.00;98591.59;6141185;23;19999;-90
2023/11/16 17:26:00;;;;;;;;;;;;;;;5.62;100.00;98583.06;6182012;23;19916;-89
2023/11/16 17:28:57;;;;;;;;;;;;;;;5.60;100.00;98584.91;6196372;23;19916;-92
2023/11/16 17:31:30;;;;;;;;;;;;;;;5.69;100.00;98595.94;6246861;22;19919;-89
2023/11/16 17:33:56;;;;;;;;;;;;;;;5.63;100.00;98584.78;6191790;23;19928;-95
2023/11/16 17:36:21;;;;;;;;;;;;;;;5.58;100.00;98594.59;6252566;22;19911;-95
2023/11/16 17:38:51;;;;;;;;;;;;;;;5.70;100.00;98595.03;6291257;22;19939;-93
2023/11/16 17:44:19;;;;;;;;;;;;;;;5.61;100.00;98591.00;6197997;22;20346;-94
2023/11/16 17:46:45;;;;;;;;;;;;;;;5.61;100.00;98591.00;6256743;22;19919;-92
2023/11/16 17:49:25;;;;;;;;;;;;;;;5.61;100.00;98583.97;6278951;22;19936;-95
2023/11/16 17:51:50;;;;;;;;;;;;;;;5.59;100.00;98592.84;6252574;22;20501;-88
2023/11/16 17:55:18;;;;;;;;;;;;;;;5.61;100.00;98596.25;6283104;22;19912;-94
2023/11/16 17:57:23;;;;;;;;;;;;;;;5.61;100.00;98596.25;6267980;22;19958;-93
2023/11/16 17:59:57;;;;;;;;;;;;;;;5.68;100.00;98597.72;6275497;22;19912;-92
2023/11/16 18:02:32;;;;;;;;;;;;;;;5.69;100.00;98604.66;6280439;22;19930;-94
2023/11/16 18:05:00;;;;;;;;;;;;;;;5.66;100.00;98604.78;6226728;22;19997;-93
2023/11/16 18:07:26;;;;;;;;;;;;;;;5.57;100.00;98606.03;6252737;22;19920;-95
2023/11/16 18:09:51;;;;;;;;;;;;;;;5.57;100.00;98613.09;6275866;22;20383;-88
2023/11/16 18:12:18;;;;;;;;;;;;;;;5.58;100.00;98618.25;6280616;22;20369;-88
2023/11/16 18:14:44;;;;;;;;;;;;;;;5.59;100.00;98619.97;6250630;22;20274;-92
2023/11/16 18:17:10;;;;;;;;;;;;;;;5.56;100.00;98620.09;6276506;22;19922;-89
2023/11/16 18:19:37;;;;;;;;;;;;;;;5.56;100.00;98616.63;6277893;22;19911;-93
2023/11/16 18:22:03;;;;;;;;;;;;;;;5.66;100.00;98620.56;6251342;22;19961;-93
2023/11/16 18:24:28;;;;;;;;;;;;;;;5.57;100.00;98624.44;6250483;22;19912;-88
2023/11/16 18:26:57;;;;;;;;;;;;;;;5.59;100.00;98635.72;6277323;22;19918;-91
2023/11/16 18:29:22;;;;;;;;;;;;;;;5.56;100.00;98640.25;6255024;22;19921;-93
2023/11/16 18:31:49;;;;;;;;;;;;;;;5.58;100.00;98638.41;6253799;22;20315;-92
2023/11/16 18:34:46;;;;;;;;;;;;;;;5.58;100.00;98644.53;6278788;22;19919;-92
2023/11/16 18:37:15;;;;;;;;;;;;;;;5.55;100.00;98654.31;6214806;22;19915;-91
2023/11/16 18:39:41;;;;;;;;;;;;;;;5.57;100.00;98642.84;6256964;22;20221;-93
2023/11/16 18:42:18;;;;;;;;;;;;;;;5.54;100.00;98647.38;6282732;22;19926;-91
2023/11/16 18:44:43;;;;;;;;;;;;;;;5.55;100.00;98642.06;6284449;22;19918;-91
2023/11/16 18:47:09;;;;;;;;;;;;;;;5.59;100.00;98641.00;6281441;22;19943;-93
2023/11/16 18:49:35;;;;;;;;;;;;;;;5.53;100.00;98646.50;6279197;22;20379;-85
2023/11/16 18:54:39;;;;;;;;;;;;;;;5.60;100.00;98640.09;6218567;23;19966;-93
2023/11/16 18:57:04;;;;;;;;;;;;;;;5.58;100.00;98644.53;6192544;23;19919;-93
2023/11/16 18:59:31;;;;;;;;;;;;;;;5.58;100.00;98644.53;6191610;23;20268;-88
2023/11/16 19:01:56;;;;;;;;;;;;;;;5.50;100.00;98645.75;6193787;23;19916;-94
2023/11/16 19:04:22;;;;;;;;;;;;;;;5.56;100.00;98649.00;6195179;23;19916;-92
2023/11/16 19:07:09;;;;;;;;;;;;;;;5.55;100.00;98656.94;6193682;23;19960;-93
2023/11/16 19:09:34;;;;;;;;;;;;;;;5.53;100.00;98654.38;6218323;23;19997;-91
2023/11/16 19:12:02;;;;;;;;;;;;;;;5.56;100.00;98643.75;6220578;23;19920;-95
2023/11/16 19:14:32;;;;;;;;;;;;;;;5.56;100.00;98650.78;6196274;23;19912;-92
2023/11/16 19:16:58;;;;;;;;;;;;;;;5.57;100.00;98652.50;6195681;23;20213;-94
2023/11/16 19:19:23;;;;;;;;;;;;;;;5.60;100.00;98655.84;6191584;23;20003;-87
2023/11/16 19:21:49;;;;;;;;;;;;;;;5.63;100.00;98660.09;6217225;23;20324;-86
2023/11/16 19:24:21;;;;;;;;;;;;;;;5.60;100.00;98657.59;6216655;23;20328;-89
2023/11/16 19:26:47;;;;;;;;;;;;;;;5.55;100.00;98659.56;6220842;23;19946;-90
2023/11/16 19:29:24;;;;;;;;;;;;;;;5.56;100.00;98656.88;6219376;23;19912;-94
2023/11/16 19:31:50;;;;;;;;;;;;;;;5.59;100.00;98659.38;6191647;23;20034;-90
2023/11/16 19:34:17;;;;;;;;;;;;;;;5.60;100.00;98654.97;6219989;23;19922;-95
2023/11/16 19:36:43;;;;;;;;;;;;;;;5.58;100.00;98659.44;6198167;23;20304;-88
2023/11/16 19:39:08;;;;;;;;;;;;;;;5.60;100.00;98658.47;6197125;23;19916;-93
2023/11/16 19:41:45;;;;;;;;;;;;;;;5.62;100.00;98661.88;6192191;23;20331;-94
2023/11/16 19:44:12;;;;;;;;;;;;;;;5.57;100.00;98666.47;6218466;23;19919;-93
2023/11/16 19:46:38;;;;;;;;;;;;;;;5.61;100.00;98670.69;6220242;23;19916;-86
2023/11/16 19:49:04;;;;;;;;;;;;;;;5.56;100.00;98683.16;6192344;23;19958;-93
2023/11/16 19:51:30;;;;;;;;;;;;;;;5.54;100.00;98679.75;6222869;23;19916;-93
2023/11/16 19:53:58;;;;;;;;;;;;;;;5.59;100.00;98690.91;6215945;23;19974;-90
2023/11/16 19:59:33;;;;;;;;;;;;;;;5.61;100.00;98699.59;6238651;23;19966;-91
2023/11/16 20:02:16;;;;;;;;;;;;;;;5.64;100.00;98702.09;6220556;23;19915;-92
2023/11/16 20:04:44;;;;;;;;;;;;;;;5.56;100.00;98704.19;6221847;23;19975;-87
2023/11/16 20:07:27;;;;;;;;;;;;;;;5.60;100.00;98711.03;6219851;23;19925;-92
2023/11/16 20:12:46;;;;;;;;;;;;;;;5.55;100.00;98728.78;6275094;22;19923;-89
2023/11/16 20:15:12;;;;;;;;;;;;;;;5.54;100.00;98737.56;6231316;22;20118;-90
2023/11/16 20:17:41;;;;;;;;;;;;;;;5.60;100.00;98739.06;6253696;22;19915;-93
2023/11/16 20:20:13;;;;;;;;;;;;;;;5.57;100.00;98752.34;6247960;22;19970;-87
2023/11/16 20:22:42;;;;;;;;;;;;;;;5.55;100.00;98760.31;6248691;22;19920;-94
2023/11/16 20:25:13;;;;;;;;;;;;;;;5.52;100.00;98770.94;6276430;22;19920;-93
2023/11/16 20:27:38;;;;;;;;;;;;;;;5.55;100.00;98786.56;6253440;22;19919;-92
2023/11/16 20:30:05;;;;;;;;;;;;;;;5.53;100.00;98788.38;6277505;22;19912;-94
2023/11/16 20:32:30;;;;;;;;;;;;;;;5.48;100.00;98802.63;6252638;22;19911;-92
2023/11/16 20:34:58;;;;;;;;;;;;;;;5.50;100.00;98804.25;6275229;22;19915;-92
2023/11/16 20:37:25;;;;;;;;;;;;;;;5.50;100.00;98813.94;6275006;22;19915;-87
2023/11/16 20:42:30;;;;;;;;;;;;;;;5.57;100.00;98831.19;6128971;22;1972320;-93
2023/11/16 20:44:55;;;;;;;;;;;;;;;5.56;100.00;98846.09;6188167;23;19999;-94
2023/11/16 20:47:21;;;;;;;;;;;;;;;5.54;100.00;98862.84;6187404;23;19998;-89
2023/11/16 20:49:46;;;;;;;;;;;;;;;5.59;100.00;98871.41;6214966;23;19951;-89
2023/11/16 20:52:11;;;;;;;;;;;;;;;5.60;100.00;98883.59;6213289;23;19938;-87
2023/11/16 20:54:59;;;;;;;;;;;;;;;5.59;100.00;98890.66;6212389;23;19912;-88
2023/11/16 20:57:23;;;;;;;;;;;;;;;5.52;100.00;98889.19;6212134;23;20295;-89
2023/11/16 20:59:49;;;;;;;;;;;;;;;5.57;100.00;98889.00;6218699;23;19915;-89
2023/11/16 21:02:17;;;;;;;;;;;;;;;5.56;100.00;98889.91;6247717;23;20002;-95
2023/11/16 21:04:47;;;;;;;;;;;;;;;5.63;100.00;98894.88;6248733;23;19990;-92
2023/11/16 21:13:51;;;;;;;;;;;;;;;5.55;100.00;98933.75;6087088;23;19937;-89
2023/11/16 21:16:17;;;;;;;;;;;;;;;5.57;100.00;98937.16;6244771;23;19947;-93
2023/11/16 21:18:43;;;;;;;;;;;;;;;5.57;100.00;98957.34;6245765;23;19915;-90
2023/11/16 21:21:12;;;;;;;;;;;;;;;5.55;100.00;98962.66;6219202;23;19912;-90
2023/11/16 21:23:38;;;;;;;;;;;;;;;5.57;100.00;98981.84;6207739;23;20450;-90
2023/11/16 21:26:04;;;;;;;;;;;;;;;5.54;100.00;98994.22;6247986;23;19915;-84
2023/11/16 21:28:29;;;;;;;;;;;;;;;5.56;100.00;99024.78;6222376;23;19912;-93
2023/11/16 21:30:55;;;;;;;;;;;;;;;5.58;100.00;99027.38;6250121;23;19908;-89
2023/11/16 21:33:56;;;;;;;;;;;;;;;;;;;;;
2023/11/16 21:36:29;;;;;;;;;;;;;;;5.52;100.00;99043.34;6248677;23;20006;-88
2023/11/16 21:38:56;;;;;;;;;;;;;;;5.50;100.00;99056.53;6220521;23;19915;-94
2023/11/16 21:41:24;;;;;;;;;;;;;;;5.43;100.00;99062.91;6148741;23;19996;-93
2023/11/16 21:43:49;;;;;;;;;;;;;;;5.45;100.00;99074.22;6153526;23;19996;-91
2023/11/16 21:46:16;;;;;;;;;;;;;;;5.50;100.00;99087.22;6155942;23;20244;-94
2023/11/16 21:48:49;;;;;;;;;;;;;;;5.45;100.00;99085.56;6155087;23;19959;-89